createdAt,value
2023-03-15T00:00:47.765Z,16.42
2023-03-15T00:03:15.164Z,15.75
2023-03-15T00:05:43.632Z,18.70
2023-03-15T00:08:12.359Z,14.98
2023-03-15T00:10:43.359Z,10.95
2023-03-15T00:13:11.326Z,9.70
2023-03-15T00:15:45.765Z,9.20
2023-03-15T00:18:12.855Z,6.93
2023-03-15T00:20:40.029Z,10.98
2023-03-15T00:23:07.127Z,8.05
2023-03-15T00:25:34.141Z,8.93
2023-03-15T00:28:01.275Z,6.32
2023-03-15T00:30:28.463Z,7.80
2023-03-15T00:32:55.730Z,6.75
2023-03-15T00:35:24.311Z,6.65
2023-03-15T00:38:11.938Z,5.65
2023-03-15T00:40:52.436Z,11.85
2023-03-15T00:43:32.929Z,7.15
2023-03-15T00:46:14.922Z,6.20
2023-03-15T00:48:42.553Z,6.82
2023-03-15T00:51:19.043Z,5.60
2023-03-15T00:54:06.942Z,3.85
2023-03-15T00:57:07.961Z,4.97
2023-03-15T00:59:48.493Z,7.03
2023-03-15T01:02:15.576Z,5.03
2023-03-15T01:04:42.569Z,4.25
2023-03-15T01:07:09.666Z,6.80
2023-03-15T01:09:37.933Z,4.57
2023-03-15T01:12:05.132Z,6.07
2023-03-15T01:14:35.351Z,6.75
2023-03-15T01:17:02.455Z,6.60
2023-03-15T01:19:29.442Z,7.75
2023-03-15T01:21:56.477Z,7.05
2023-03-15T01:24:23.445Z,8.32
2023-03-15T01:26:50.675Z,12.00
2023-03-15T01:29:18.056Z,10.10
2023-03-15T01:31:45.101Z,11.00
2023-03-15T01:34:32.048Z,9.77
2023-03-15T01:37:14.630Z,9.73
2023-03-15T01:39:44.635Z,9.85
2023-03-15T01:42:31.916Z,10.90
2023-03-15T01:45:57.466Z,16.23
2023-03-15T01:48:47.744Z,10.23
2023-03-15T01:51:43.289Z,19.65
2023-03-15T01:55:09.086Z,10.80
2023-03-15T01:57:56.161Z,19.45
2023-03-15T02:00:25.212Z,12.00
2023-03-15T02:03:08.117Z,11.60
2023-03-15T02:05:46.347Z,10.90
2023-03-15T02:08:19.724Z,9.70
2023-03-15T02:10:51.773Z,10.13
2023-03-15T02:13:23.557Z,13.25
2023-03-15T02:15:55.221Z,9.38
2023-03-15T02:18:35.975Z,7.50
2023-03-15T02:21:06.395Z,8.57
2023-03-15T02:23:33.770Z,7.78
2023-03-15T02:26:19.570Z,6.85
2023-03-15T02:28:48.936Z,6.63
2023-03-15T02:31:16.093Z,5.25
2023-03-15T02:34:04.945Z,5.60
2023-03-15T02:37:05.948Z,3.83
2023-03-15T02:39:46.620Z,7.03
2023-03-15T02:42:33.976Z,4.13
2023-03-15T02:45:14.806Z,3.88
2023-03-15T02:47:41.816Z,3.58
2023-03-15T02:50:09.425Z,4.03
2023-03-15T02:52:56.988Z,2.85
2023-03-15T02:55:37.824Z,2.80
2023-03-15T02:58:05.443Z,1.88
2023-03-15T03:00:32.785Z,5.35
2023-03-15T03:02:59.872Z,3.22
2023-03-15T03:05:27.611Z,1.50
2023-03-15T03:07:55.259Z,8.35
2023-03-15T03:10:23.000Z,13.57
2023-03-15T03:12:53.760Z,4.53
2023-03-15T03:15:27.941Z,1.02
2023-03-15T03:17:55.026Z,0.90
2023-03-15T03:20:23.615Z,0.57
2023-03-15T03:22:50.657Z,1.95
2023-03-15T03:25:18.536Z,0.55
2023-03-15T03:27:48.339Z,1.85
2023-03-15T03:30:16.381Z,0.45
2023-03-15T03:33:02.010Z,0.38
2023-03-15T03:35:50.111Z,0.45
2023-03-15T03:38:17.448Z,0.32
2023-03-15T03:40:50.260Z,0.68
2023-03-15T03:43:38.003Z,0.45
2023-03-15T03:46:39.014Z,2.10
2023-03-15T03:49:21.154Z,0.47
2023-03-15T03:51:48.321Z,3.80
2023-03-15T03:54:37.033Z,2.42
2023-03-15T03:57:17.692Z,1.17
2023-03-15T03:59:44.815Z,0.35
2023-03-15T04:02:11.930Z,1.65
2023-03-15T04:04:43.749Z,0.40
2023-03-15T04:07:17.244Z,1.08
2023-03-15T04:09:45.173Z,0.50
2023-03-15T04:12:12.663Z,0.63
2023-03-15T04:14:42.175Z,1.65
2023-03-15T04:17:11.513Z,0.77
2023-03-15T04:19:38.535Z,0.70
2023-03-15T04:22:10.363Z,0.55
2023-03-15T04:24:53.025Z,0.47
2023-03-15T04:28:02.996Z,1.13
2023-03-15T04:30:45.166Z,2.13
2023-03-15T04:33:45.187Z,0.90
2023-03-15T04:36:31.221Z,0.30
2023-03-15T04:39:27.367Z,4.13
2023-03-15T04:42:47.031Z,0.40
2023-03-15T04:45:41.799Z,0.65
2023-03-15T04:48:23.214Z,1.05
2023-03-15T04:51:24.969Z,0.47
2023-03-15T04:54:28.128Z,1.13
2023-03-15T04:57:39.059Z,6.15
2023-03-15T05:00:54.171Z,0.90
2023-03-15T05:03:54.572Z,1.23
2023-03-15T05:06:50.871Z,0.73
2023-03-15T05:09:56.267Z,0.93
2023-03-15T05:12:52.661Z,0.45
2023-03-15T05:15:25.560Z,0.50
2023-03-15T05:17:55.172Z,1.05
2023-03-15T05:23:14.086Z,1.08
2023-03-15T05:26:01.263Z,0.65
2023-03-15T05:28:57.409Z,2.33
2023-03-15T05:31:37.229Z,0.50
2023-03-15T05:34:32.403Z,0.55
2023-03-15T05:36:59.881Z,0.45
2023-03-15T05:39:42.627Z,0.82
2023-03-15T05:42:48.063Z,0.40
2023-03-15T05:45:51.762Z,1.05
2023-03-15T05:48:37.793Z,1.20
2023-03-15T05:51:14.047Z,1.65
2023-03-15T05:54:24.131Z,0.52
2023-03-15T05:57:25.078Z,1.77
2023-03-15T06:01:01.065Z,0.60
2023-03-15T06:04:00.688Z,1.10
2023-03-15T06:06:33.585Z,0.73
2023-03-15T06:09:02.078Z,0.95
2023-03-15T06:11:29.169Z,4.47
2023-03-15T06:14:17.161Z,0.80
2023-03-15T06:16:59.795Z,0.50
2023-03-15T06:19:29.658Z,0.70
2023-03-15T06:21:57.024Z,1.08
2023-03-15T06:24:31.176Z,0.75
2023-03-15T06:26:58.590Z,1.17
2023-03-15T06:29:26.154Z,7.28
2023-03-15T06:31:55.599Z,7.47
2023-03-15T06:34:24.648Z,0.50
2023-03-15T06:36:52.697Z,0.40
2023-03-15T06:39:20.244Z,3.83
2023-03-15T06:42:09.100Z,1.95
2023-03-15T06:44:51.174Z,0.30
2023-03-15T06:47:19.414Z,0.30
2023-03-15T06:49:50.432Z,0.82
2023-03-15T06:52:38.248Z,0.30
2023-03-15T06:55:18.696Z,0.52
2023-03-15T06:57:46.596Z,7.85
2023-03-15T07:00:34.135Z,0.75
2023-03-15T07:03:28.247Z,0.85
2023-03-15T07:06:22.158Z,0.30
2023-03-15T07:09:04.399Z,0.30
2023-03-15T07:11:32.542Z,5.07
2023-03-15T07:13:59.855Z,4.22
2023-03-15T07:16:26.726Z,0.30
2023-03-15T07:18:56.226Z,1.67
2023-03-15T07:21:23.189Z,0.20
2023-03-15T07:23:50.155Z,0.47
2023-03-15T07:26:17.248Z,3.05
2023-03-15T07:28:44.968Z,4.35
2023-03-15T07:31:12.246Z,6.32
2023-03-15T07:33:39.658Z,11.20
2023-03-15T07:36:07.847Z,6.05
2023-03-15T07:38:36.114Z,0.30
2023-03-15T07:41:05.214Z,0.28
2023-03-15T07:43:52.152Z,3.72
2023-03-15T07:46:33.836Z,0.40
2023-03-15T07:49:01.084Z,1.75
2023-03-15T07:51:28.126Z,4.80
2023-03-15T07:54:15.221Z,4.40
2023-03-15T07:56:56.052Z,0.30
2023-03-15T07:59:43.148Z,1.58
2023-03-15T08:02:23.834Z,1.33
2023-03-15T08:04:51.726Z,8.30
2023-03-15T08:07:18.972Z,0.30
2023-03-15T08:09:46.497Z,0.40
2023-03-15T08:12:13.683Z,4.60
2023-03-15T08:15:01.141Z,2.28
2023-03-15T08:18:02.198Z,4.10
2023-03-15T08:20:42.830Z,0.52
2023-03-15T08:23:09.823Z,4.80
2023-03-15T08:25:41.015Z,0.30
2023-03-15T08:28:08.425Z,7.68
2023-03-15T08:30:35.476Z,0.30
2023-03-15T08:33:03.924Z,0.75
2023-03-15T08:35:33.222Z,4.10
2023-03-15T08:38:02.893Z,0.30
2023-03-15T08:40:30.834Z,0.47
2023-03-15T08:43:11.196Z,5.88
2023-03-15T08:46:00.760Z,2.55
2023-03-15T08:48:28.627Z,0.20
2023-03-15T08:51:20.169Z,1.02
2023-03-15T08:54:24.256Z,0.20
2023-03-15T08:57:25.172Z,0.40
2023-03-15T09:00:33.230Z,0.30
2023-03-15T09:03:14.717Z,0.52
2023-03-15T09:05:55.269Z,0.20
2023-03-15T09:08:49.372Z,4.85
2023-03-15T09:11:16.788Z,1.65
2023-03-15T09:13:43.695Z,4.60
2023-03-15T09:16:10.681Z,3.78
2023-03-15T09:18:37.994Z,1.45
2023-03-15T09:21:05.544Z,1.10
2023-03-15T09:23:32.995Z,1.88
2023-03-15T09:25:59.946Z,0.25
2023-03-15T09:28:27.089Z,2.97
2023-03-15T09:30:54.251Z,0.35
2023-03-15T09:33:22.574Z,2.05
2023-03-15T09:35:53.467Z,0.35
2023-03-15T09:38:22.320Z,3.67
2023-03-15T09:40:49.328Z,0.50
2023-03-15T09:44:24.196Z,8.40
2023-03-15T09:47:37.237Z,1.45
2023-03-15T09:50:45.205Z,0.57
2023-03-15T09:53:47.364Z,1.48
2023-03-15T09:56:46.269Z,0.95
2023-03-15T09:59:33.256Z,1.50
2023-03-15T10:02:14.258Z,0.43
2023-03-15T10:04:44.841Z,0.55
2023-03-15T10:07:25.213Z,1.08
2023-03-15T10:10:28.869Z,0.68
2023-03-15T10:13:34.575Z,3.85
2023-03-15T10:16:12.131Z,1.13
2023-03-15T10:19:05.610Z,0.28
2023-03-15T10:22:04.484Z,2.92
2023-03-15T10:24:55.953Z,1.63
2023-03-15T10:27:28.679Z,0.80
2023-03-15T10:29:58.504Z,0.82
2023-03-15T10:32:40.979Z,0.63
2023-03-15T10:35:15.580Z,0.40
2023-03-15T10:37:43.913Z,0.45
2023-03-15T10:40:16.171Z,1.30
2023-03-15T10:43:03.249Z,3.95
2023-03-15T10:45:47.679Z,1.38
2023-03-15T10:48:14.793Z,14.00
2023-03-15T10:51:04.241Z,0.35
2023-03-15T10:54:25.226Z,5.38
2023-03-15T10:57:32.251Z,0.50
2023-03-15T11:00:26.982Z,1.90
2023-03-15T11:03:25.882Z,0.43
2023-03-15T11:06:14.950Z,1.75
2023-03-15T11:09:08.896Z,6.82
2023-03-15T11:11:51.842Z,0.45
2023-03-15T11:14:19.512Z,3.33
2023-03-15T11:16:59.176Z,1.55
2023-03-15T11:19:30.060Z,5.88
2023-03-15T11:21:59.839Z,0.50
2023-03-15T11:24:33.136Z,3.35
2023-03-15T11:27:03.370Z,0.38
2023-03-15T11:29:35.766Z,1.65
2023-03-15T11:32:16.734Z,0.30
2023-03-15T11:35:06.231Z,1.50
2023-03-15T11:37:42.935Z,1.33
2023-03-15T11:40:16.066Z,0.30
2023-03-15T11:46:05.082Z,0.80
2023-03-15T11:49:01.410Z,0.30
2023-03-15T11:51:50.295Z,1.02
2023-03-15T11:54:51.293Z,1.88
2023-03-15T11:57:38.218Z,0.43
2023-03-15T12:00:36.456Z,0.73
2023-03-15T12:03:29.772Z,5.78
2023-03-15T12:06:06.385Z,2.30
2023-03-15T12:08:36.287Z,1.50
2023-03-15T12:11:11.628Z,0.73
2023-03-15T12:13:38.760Z,2.50
2023-03-15T12:16:07.213Z,1.10
2023-03-15T12:18:44.500Z,1.27
2023-03-15T12:21:13.344Z,6.05
2023-03-15T12:24:06.229Z,1.00
2023-03-15T12:26:45.650Z,3.25
2023-03-15T12:29:21.277Z,1.45
2023-03-15T12:32:07.734Z,0.40
2023-03-15T12:34:42.624Z,1.35
2023-03-15T12:37:21.247Z,0.55
2023-03-15T12:40:22.761Z,0.40
2023-03-15T12:43:10.317Z,0.20
2023-03-15T12:46:11.332Z,0.20
2023-03-15T12:49:20.290Z,3.33
2023-03-15T12:52:30.292Z,1.50
2023-03-15T12:55:32.286Z,0.68
2023-03-15T12:58:31.303Z,0.30
2023-03-15T13:01:00.821Z,3.22
2023-03-15T13:03:28.102Z,1.80
2023-03-15T13:06:21.331Z,1.85
2023-03-15T13:09:14.993Z,1.63
2023-03-15T13:12:16.018Z,0.20
2023-03-15T13:15:05.455Z,0.50
2023-03-15T13:17:42.546Z,0.20
2023-03-15T13:20:17.788Z,0.70
2023-03-15T13:23:03.642Z,3.85
2023-03-15T13:25:40.414Z,0.80
2023-03-15T13:28:14.858Z,0.38
2023-03-15T13:31:03.180Z,0.38
2023-03-15T13:33:31.814Z,0.25
2023-03-15T13:36:13.209Z,0.20
2023-03-15T13:38:45.993Z,1.00
2023-03-15T13:41:33.319Z,2.53
2023-03-15T13:44:32.572Z,0.50
2023-03-15T13:47:19.460Z,2.85
2023-03-15T13:50:22.359Z,0.40
2023-03-15T13:53:39.484Z,0.50
2023-03-15T13:56:49.227Z,0.77
2023-03-15T13:59:35.442Z,0.30
2023-03-15T14:02:06.080Z,1.27
2023-03-15T14:04:38.367Z,0.32
2023-03-15T14:07:15.934Z,0.32
2023-03-15T14:09:42.916Z,0.45
2023-03-15T14:12:23.254Z,1.20
2023-03-15T14:14:52.915Z,0.50
2023-03-15T14:17:31.432Z,0.40
2023-03-15T14:20:09.251Z,0.43
2023-03-15T14:22:37.085Z,0.30
2023-03-15T14:25:04.842Z,0.50
2023-03-15T14:27:52.371Z,0.30
2023-03-15T14:30:36.377Z,0.25
2023-03-15T14:33:07.626Z,0.40
2023-03-15T14:35:37.806Z,2.38
2023-03-15T14:38:09.401Z,2.47
2023-03-15T14:40:39.309Z,0.50
2023-03-15T14:43:19.443Z,0.50
2023-03-15T14:46:22.360Z,0.40
2023-03-15T14:49:42.460Z,0.73
2023-03-15T14:52:44.389Z,0.30
2023-03-15T14:55:41.479Z,0.52
2023-03-15T14:58:26.802Z,0.77
2023-03-15T15:00:56.373Z,0.25
2023-03-15T15:03:39.870Z,2.22
2023-03-15T15:06:29.401Z,0.60
2023-03-15T15:09:40.066Z,0.40
2023-03-15T15:12:41.478Z,1.73
2023-03-15T15:15:23.055Z,6.93
2023-03-15T15:17:50.156Z,1.27
2023-03-15T15:20:17.867Z,7.80
2023-03-15T15:22:46.212Z,0.47
2023-03-15T15:25:14.494Z,0.65
2023-03-15T15:27:41.630Z,0.43
2023-03-15T15:30:23.524Z,1.23
2023-03-15T15:32:52.869Z,0.63
2023-03-15T15:35:20.854Z,0.55
2023-03-15T15:37:50.267Z,1.25
2023-03-15T15:40:20.716Z,1.08
2023-03-15T15:43:10.447Z,1.23
2023-03-15T15:46:11.618Z,3.95
2023-03-15T15:48:52.538Z,0.38
2023-03-15T15:51:31.935Z,1.55
2023-03-15T15:54:19.422Z,1.17
2023-03-15T15:57:01.669Z,0.85
2023-03-15T15:59:48.520Z,0.40
2023-03-15T16:02:29.535Z,1.20
2023-03-15T16:04:56.709Z,5.55
2023-03-15T16:07:25.055Z,2.00
2023-03-15T16:09:56.838Z,1.20
2023-03-15T16:12:44.427Z,8.45
2023-03-15T16:15:45.476Z,2.03
2023-03-15T16:18:38.570Z,3.75
2023-03-15T16:21:05.788Z,0.88
2023-03-15T16:23:52.503Z,1.55
2023-03-15T16:26:33.961Z,0.95
2023-03-15T16:29:02.622Z,12.95
2023-03-15T16:31:29.815Z,0.82
2023-03-15T16:33:57.081Z,2.30
2023-03-15T16:36:25.525Z,0.40
2023-03-15T16:39:12.461Z,1.08
2023-03-15T16:42:13.676Z,2.45
2023-03-15T16:45:07.587Z,4.85
2023-03-15T16:47:36.778Z,5.38
2023-03-15T16:50:04.094Z,6.43
2023-03-15T16:52:53.583Z,8.98
2023-03-15T16:55:34.385Z,25.92
2023-03-15T16:58:31.474Z,17.90
2023-03-15T17:01:12.079Z,18.60
2023-03-15T17:03:39.241Z,13.63
2023-03-15T17:06:14.233Z,15.40
2023-03-15T17:08:41.211Z,17.02
2023-03-15T17:11:09.632Z,19.67
2023-03-15T17:13:56.496Z,27.75
2023-03-15T17:16:57.541Z,16.20
2023-03-15T17:19:41.061Z,17.55
2023-03-15T17:22:08.156Z,10.07
2023-03-15T17:25:08.475Z,18.40
2023-03-15T17:28:09.515Z,18.05
2023-03-15T17:30:55.226Z,18.40
2023-03-15T17:33:26.491Z,16.70
2023-03-15T17:35:58.728Z,21.58
2023-03-15T17:38:48.494Z,19.25
2023-03-15T17:41:50.462Z,13.43
2023-03-15T17:44:34.104Z,13.57
2023-03-15T17:47:02.087Z,9.93
2023-03-15T17:49:29.940Z,13.50
2023-03-15T17:52:18.492Z,9.55
2023-03-15T17:55:19.637Z,5.93
2023-03-15T17:58:00.656Z,4.07
2023-03-15T18:00:28.174Z,4.47
2023-03-15T18:02:56.717Z,14.10
2023-03-15T18:05:25.858Z,19.58
2023-03-15T18:08:00.599Z,21.98
2023-03-15T18:10:36.928Z,16.15
2023-03-15T18:13:04.431Z,7.07
2023-03-15T18:15:51.605Z,6.53
2023-03-15T18:18:52.515Z,7.80
2023-03-15T18:21:33.431Z,7.43
2023-03-15T18:24:20.585Z,7.82
2023-03-15T18:27:01.845Z,11.25
2023-03-15T18:29:28.852Z,9.80
2023-03-15T18:31:56.205Z,8.75
2023-03-15T18:34:43.622Z,19.17
2023-03-15T18:37:32.152Z,15.23
2023-03-15T18:39:59.170Z,12.20
2023-03-15T18:42:46.519Z,26.42
2023-03-15T18:45:30.446Z,22.50
2023-03-15T18:47:59.936Z,18.42
2023-03-15T18:50:28.024Z,17.83
2023-03-15T18:53:15.557Z,14.55
2023-03-15T18:55:56.073Z,11.82
2023-03-15T18:58:22.976Z,13.30
2023-03-15T19:00:50.271Z,9.32
2023-03-15T19:03:17.292Z,10.65
2023-03-15T19:05:44.439Z,9.77
2023-03-15T19:08:11.537Z,7.00
2023-03-15T19:10:38.590Z,6.13
2023-03-15T19:13:05.921Z,5.97
2023-03-15T19:15:33.074Z,3.92
2023-03-15T19:18:00.912Z,6.47
2023-03-15T19:20:28.046Z,11.32
2023-03-15T19:22:55.174Z,4.88
2023-03-15T19:25:22.267Z,5.82
2023-03-15T19:27:49.317Z,7.00
2023-03-15T19:30:21.295Z,7.35
2023-03-15T19:33:08.644Z,4.57
2023-03-15T19:36:09.721Z,9.40
2023-03-15T19:38:50.274Z,4.72
2023-03-15T19:41:23.587Z,10.65
2023-03-15T19:44:25.578Z,9.70
2023-03-15T19:46:56.659Z,18.58
2023-03-15T19:49:24.469Z,5.70
2023-03-15T19:51:51.570Z,6.53
2023-03-15T19:54:40.626Z,10.85
2023-03-15T19:57:21.277Z,8.10
2023-03-15T19:59:48.934Z,4.53
2023-03-15T20:02:16.213Z,5.90
2023-03-15T20:04:43.499Z,11.65
2023-03-15T20:07:30.586Z,8.95
2023-03-15T20:10:13.276Z,7.32
2023-03-15T20:12:45.663Z,7.05
2023-03-15T20:15:15.646Z,13.05
2023-03-15T20:17:43.389Z,10.98
2023-03-15T20:20:11.671Z,7.93
2023-03-15T20:22:41.198Z,11.82
2023-03-15T20:25:10.670Z,10.82
2023-03-15T20:27:38.260Z,8.13
2023-03-15T20:30:27.768Z,11.32
2023-03-15T20:33:17.623Z,7.70
2023-03-15T20:35:44.794Z,24.35
2023-03-15T20:38:13.446Z,10.80
2023-03-15T20:40:40.482Z,9.13
2023-03-15T20:43:27.583Z,17.05
2023-03-15T20:46:29.916Z,13.38
2023-03-15T20:49:10.913Z,13.18
2023-03-15T20:51:38.454Z,9.43
2023-03-15T20:54:25.620Z,9.48
2023-03-15T20:57:07.462Z,9.07
2023-03-15T20:59:34.651Z,9.43
2023-03-15T21:02:02.941Z,16.60
2023-03-15T21:04:30.928Z,11.57
2023-03-15T21:07:17.645Z,8.80
2023-03-15T21:10:13.755Z,21.70
2023-03-15T21:12:40.864Z,10.70
2023-03-15T21:15:08.518Z,9.90
2023-03-15T21:17:36.499Z,15.00
2023-03-15T21:20:07.369Z,9.68
2023-03-15T21:22:34.320Z,8.88
2023-03-15T21:25:02.914Z,15.15
2023-03-15T21:27:30.338Z,12.50
2023-03-15T21:30:17.633Z,12.35
2023-03-15T21:32:58.472Z,10.27
2023-03-15T21:35:26.320Z,11.40
2023-03-15T21:38:01.848Z,9.93
2023-03-15T21:40:28.888Z,13.52
2023-03-15T21:43:16.648Z,26.85
2023-03-15T21:46:05.642Z,13.48
2023-03-15T21:48:34.075Z,15.25
2023-03-15T21:51:02.145Z,15.45
2023-03-15T21:53:49.590Z,16.63
2023-03-15T21:56:50.643Z,15.63
2023-03-15T21:59:31.295Z,15.60
2023-03-15T22:01:58.310Z,15.43
2023-03-15T22:04:25.687Z,12.73
2023-03-15T22:06:53.112Z,13.63
2023-03-15T22:09:21.131Z,11.40
2023-03-15T22:11:49.496Z,11.57
2023-03-15T22:14:16.673Z,11.27
2023-03-15T22:16:43.762Z,15.57
2023-03-15T22:19:10.782Z,12.93
2023-03-15T22:21:37.777Z,9.70
2023-03-15T22:24:05.123Z,10.20
2023-03-15T22:26:52.637Z,10.85
2023-03-15T22:29:33.567Z,9.68
2023-03-15T22:32:00.662Z,19.27
2023-03-15T22:34:27.780Z,9.75
2023-03-15T22:36:54.762Z,10.00
2023-03-15T22:39:22.223Z,10.27
2023-03-15T22:42:09.673Z,21.00
2023-03-15T22:44:50.438Z,9.20
2023-03-15T22:47:17.367Z,10.98
2023-03-15T22:49:44.571Z,16.38
2023-03-15T22:52:31.684Z,10.23
2023-03-15T22:55:13.766Z,10.95
2023-03-15T22:57:40.774Z,12.35
2023-03-15T23:00:14.100Z,11.52
2023-03-15T23:02:44.768Z,12.88
2023-03-15T23:05:12.938Z,16.25
2023-03-15T23:07:40.702Z,16.70
2023-03-15T23:10:09.782Z,12.05
2023-03-15T23:12:36.985Z,13.88
2023-03-15T23:15:04.968Z,15.52
2023-03-15T23:17:32.227Z,18.70
2023-03-15T23:19:59.389Z,15.45
2023-03-15T23:22:26.503Z,20.55
2023-03-15T23:25:13.748Z,26.50
2023-03-15T23:28:14.678Z,16.17
2023-03-15T23:31:17.726Z,17.50
2023-03-15T23:33:58.219Z,12.80
2023-03-15T23:36:25.247Z,16.25
2023-03-15T23:38:53.426Z,11.73
2023-03-15T23:41:42.690Z,14.98
2023-03-15T23:44:34.090Z,12.23
2023-03-15T23:47:03.091Z,10.65
2023-03-15T23:49:30.140Z,22.80
2023-03-15T23:51:57.459Z,15.77
2023-03-15T23:54:24.416Z,14.68
2023-03-15T23:56:51.568Z,12.02
2023-03-15T23:59:18.626Z,11.10
